This is the latest recevied weather packets stored in our database for station/object SALT. If no packets are shown the sender has not sent any weather packets the latest 1 day(s).
| Time | Temp. | Humidity | Pressure | Rain* | Wind** | Luminosity | Snow |
|---|---|---|---|---|---|---|---|
| 1778030749 | 12.22° C | 55% | 1016 hPa | 0 mm | 4.92 m/s, 346° | - | - |
| 1778030717 | 12.22° C | 55% | 1016 hPa | 0 mm | 4.92 m/s, 346° | - | - |
| 1778030114 | 12.78° C | 52% | 1015.8 hPa | 0 mm | 6.26 m/s, 350° | - | - |
| 1778029512 | 12.78° C | 51% | 1015.8 hPa | 0 mm | 5.81 m/s, 319° | - | - |
| 1778028909 | 13.33° C | 50% | 1015.8 hPa | 0 mm | 3.13 m/s, 328° | - | - |
| 1778028306 | 13.33° C | 49% | 1015.8 hPa | 0 mm | 4.92 m/s, 321° | - | - |
| 1778027701 | 12.78° C | 50% | 1015.8 hPa | 0 mm | 4.92 m/s, 338° | - | - |
| 1778027147 | 13.33° C | 50% | 1015.7 hPa | 0 mm | 2.68 m/s, 354° | - | - |
| 1778027099 | 13.33° C | 50% | 1015.7 hPa | 0 mm | 2.68 m/s, 354° | - | - |
| 1778026495 | 12.22° C | 51% | 1015.9 hPa | 0 mm | 3.58 m/s, 320° | - | - |
| 1778025893 | 12.78° C | 48% | 1015.8 hPa | 0 mm | 5.36 m/s, 332° | - | - |
| 1778025290 | 13.33° C | 48% | 1015.8 hPa | 0 mm | 4.47 m/s, 303° | - | - |
| 1778024688 | 12.78° C | 49% | 1015.8 hPa | 0 mm | 5.36 m/s, 340° | - | - |
| 1778024083 | 12.78° C | 49% | 1015.8 hPa | 0 mm | 4.02 m/s, 327° | - | - |
| 1778023480 | 12.78° C | 48% | 1015.8 hPa | 0 mm | 2.68 m/s, 331° | - | - |
| 1778022877 | 13.33° C | 48% | 1015.7 hPa | 0 mm | 2.68 m/s, 317° | - | - |
| 1778022275 | 13.33° C | 47% | 1015.7 hPa | 0 mm | 3.13 m/s, 337° | - | - |
| 1778021672 | 13.89° C | 46% | 1015.7 hPa | 0 mm | 3.13 m/s, 326° | - | - |
| 1778021070 | 13.89° C | 45% | 1015.6 hPa | 0 mm | 3.58 m/s, 316° | - | - |
| 1778020465 | 13.33° C | 47% | 1015.7 hPa | 0 mm | 3.58 m/s, 336° | - | - |
| 1778019862 | 13.33° C | 46% | 1015.8 hPa | 0 mm | 2.68 m/s, 316° | - | - |
| 1778019259 | 13.89° C | 46% | 1015.7 hPa | 0 mm | 3.58 m/s, 354° | - | - |
| 1778018658 | 13.89° C | 44% | 1015.8 hPa | 0 mm | 4.92 m/s, 316° | - | - |
| 1778018054 | 13.89° C | 44% | 1015.8 hPa | 0 mm | 3.13 m/s, 281° | - | - |
| 1778017452 | 14.44° C | 42% | 1015.9 hPa | 0 mm | 2.24 m/s, 354° | - | - |
* Rain latest 24 hours (hover to see other rain measurements)
** Current wind speed in m/s (hover to see current wind gust speed)